Terminal Aerodrome Forecast
Issued by NWS Twin Cities, MN

Home | Current Version | Previous Version | Graphics & Text | Print | Product List | Glossary On
Versions: 1 2 3 4 5 6 7 8 9 10 11 12 13 14 15 16 17 18 19
263
FTUS43 KMPX 231120
TAFSTC
TAF
KSTC 231120Z 2312/2412 08008KT P6SM BKN250
     FM231600 13011G18KT P6SM VCSH SCT060 BKN110
      TEMPO 2317/2320 3SM TSRA BKN035CB
     FM232300 15010KT 2SM TSRA SCT020 BKN040CB
     FM240030 19009KT P6SM SCT050 BKN100
     FM240700 26007KT P6SM SKC=

USA.gov is the U.S. government's official web portal to all federal, state and local government web resources and services.